createdAt,value
2023-02-28T00:00:53.274Z,24.90
2023-02-28T00:03:19.402Z,24.90
2023-02-28T00:05:45.522Z,24.90
2023-02-28T00:08:13.717Z,24.90
2023-02-28T00:10:39.859Z,24.90
2023-02-28T00:13:07.171Z,24.90
2023-02-28T00:15:33.589Z,24.90
2023-02-28T00:17:59.648Z,24.90
2023-02-28T00:20:26.376Z,24.90
2023-02-28T00:22:53.417Z,24.90
2023-02-28T00:25:22.059Z,24.90
2023-02-28T00:27:48.696Z,24.90
2023-02-28T00:30:20.548Z,24.90
2023-02-28T00:32:46.717Z,24.90
2023-02-28T00:35:13.403Z,24.90
2023-02-28T00:37:39.853Z,24.90
2023-02-28T00:40:07.106Z,24.90
2023-02-28T00:42:35.812Z,24.90
2023-02-28T00:45:04.068Z,24.90
2023-02-28T00:47:30.275Z,24.90
2023-02-28T00:49:56.502Z,24.90
2023-02-28T00:52:22.602Z,24.90
2023-02-28T00:54:48.689Z,24.90
2023-02-28T00:57:14.787Z,24.90
2023-02-28T00:59:40.856Z,24.90
2023-02-28T01:02:06.942Z,24.90
2023-02-28T01:04:33.217Z,24.90
2023-02-28T01:06:59.472Z,24.90
2023-02-28T01:09:26.163Z,24.90
2023-02-28T01:11:52.238Z,24.90
2023-02-28T01:14:18.864Z,25.00
2023-02-28T01:16:45.388Z,24.90
2023-02-28T01:19:11.694Z,24.90
2023-02-28T01:21:37.764Z,24.90
2023-02-28T01:24:04.714Z,24.90
2023-02-28T01:26:30.917Z,24.90
2023-02-28T01:28:57.500Z,24.90
2023-02-28T01:31:23.874Z,24.90
2023-02-28T01:33:54.509Z,24.90
2023-02-28T01:36:22.958Z,24.90
2023-02-28T01:38:49.590Z,24.90
2023-02-28T01:41:19.522Z,24.90
2023-02-28T01:43:45.527Z,24.90
2023-02-28T01:46:12.825Z,24.90
2023-02-28T01:48:44.965Z,24.90
2023-02-28T01:51:20.102Z,24.90
2023-02-28T01:53:51.643Z,24.90
2023-02-28T01:56:24.291Z,24.90
2023-02-28T01:58:51.864Z,24.90
2023-02-28T02:01:21.762Z,24.90
2023-02-28T02:03:55.523Z,24.90
2023-02-28T02:06:29.651Z,24.90
2023-02-28T02:08:56.085Z,25.00
2023-02-28T02:11:25.141Z,24.90
2023-02-28T02:14:00.121Z,24.90
2023-02-28T02:16:54.940Z,24.90
2023-02-28T02:19:29.600Z,24.90
2023-02-28T02:22:21.626Z,24.90
2023-02-28T02:24:47.843Z,24.90
2023-02-28T02:27:37.698Z,24.90
2023-02-28T02:30:54.062Z,24.90
2023-02-28T02:33:32.419Z,24.90
2023-02-28T02:36:17.076Z,25.00
2023-02-28T02:39:07.141Z,24.90
2023-02-28T02:41:46.580Z,24.90
2023-02-28T02:44:31.864Z,24.90
2023-02-28T02:47:07.136Z,24.90
2023-02-28T02:49:36.031Z,24.90
2023-02-28T02:52:06.801Z,24.90
2023-02-28T02:54:38.647Z,24.90
2023-02-28T02:57:08.963Z,24.90
2023-02-28T02:59:56.470Z,25.00
2023-02-28T03:02:23.671Z,24.90
2023-02-28T03:04:53.934Z,24.90
2023-02-28T03:07:20.168Z,24.90
2023-02-28T03:09:53.321Z,25.00
2023-02-28T03:12:39.138Z,25.00
2023-02-28T03:15:27.172Z,24.90
2023-02-28T03:18:10.520Z,25.00
2023-02-28T03:21:00.449Z,25.00
2023-02-28T03:23:42.686Z,24.90
2023-02-28T03:26:19.361Z,24.90
2023-02-28T03:28:55.034Z,24.90
2023-02-28T03:31:38.906Z,24.90
2023-02-28T03:34:24.409Z,25.00
2023-02-28T03:36:57.117Z,25.00
2023-02-28T03:39:31.432Z,25.00
2023-02-28T03:42:06.029Z,25.00
2023-02-28T03:44:40.939Z,25.00
2023-02-28T03:47:20.017Z,25.00
2023-02-28T03:49:54.237Z,25.00
2023-02-28T03:52:26.738Z,25.00
2023-02-28T03:54:57.412Z,25.00
2023-02-28T03:57:41.887Z,25.00
2023-02-28T04:00:19.169Z,25.00
2023-02-28T04:02:45.421Z,25.00
2023-02-28T04:05:11.768Z,25.00
2023-02-28T04:07:38.200Z,25.00
2023-02-28T04:10:05.434Z,25.00
2023-02-28T04:12:31.516Z,25.00
2023-02-28T04:14:57.580Z,25.00
2023-02-28T04:17:23.637Z,25.00
2023-02-28T04:19:50.188Z,25.00
2023-02-28T04:22:18.058Z,25.00
2023-02-28T04:24:44.164Z,25.00
2023-02-28T04:27:10.445Z,25.00
2023-02-28T04:29:36.620Z,25.00
2023-02-28T04:32:03.612Z,25.00
2023-02-28T04:34:33.239Z,25.00
2023-02-28T04:37:12.349Z,25.00
2023-02-28T04:39:39.687Z,25.00
2023-02-28T04:42:06.304Z,25.00
2023-02-28T04:44:32.373Z,25.00
2023-02-28T04:46:58.433Z,25.00
2023-02-28T04:49:24.577Z,25.00
2023-02-28T04:51:50.635Z,25.00
2023-02-28T04:54:18.324Z,24.90
2023-02-28T04:56:44.368Z,25.00
2023-02-28T04:59:10.423Z,25.00
2023-02-28T05:01:36.747Z,25.00
2023-02-28T05:04:04.982Z,25.00
2023-02-28T05:06:32.895Z,25.00
2023-02-28T05:08:59.736Z,25.00
2023-02-28T05:11:29.971Z,25.00
2023-02-28T05:13:56.480Z,25.00
2023-02-28T05:16:22.715Z,25.00
2023-02-28T05:18:48.906Z,25.00
2023-02-28T05:21:28.652Z,25.00
2023-02-28T05:23:57.024Z,25.00
2023-02-28T05:26:23.483Z,25.00
2023-02-28T05:28:49.668Z,25.00
2023-02-28T05:31:15.820Z,25.00
2023-02-28T05:33:41.951Z,25.00
2023-02-28T05:36:08.363Z,25.00
2023-02-28T05:38:34.482Z,25.00
2023-02-28T05:41:00.536Z,25.00
2023-02-28T05:43:26.616Z,25.00
2023-02-28T05:45:52.730Z,25.00
2023-02-28T05:48:18.828Z,25.00
2023-02-28T05:50:46.400Z,25.00
2023-02-28T05:53:12.575Z,25.00
2023-02-28T05:55:38.694Z,25.00
2023-02-28T05:58:04.755Z,25.00
2023-02-28T06:00:30.812Z,25.00
2023-02-28T06:03:00.240Z,25.00
2023-02-28T06:05:26.574Z,25.00
2023-02-28T06:07:52.620Z,24.90
2023-02-28T06:10:19.888Z,24.90
2023-02-28T06:12:46.202Z,24.80
2023-02-28T06:15:14.259Z,24.80
2023-02-28T06:17:41.860Z,24.80
2023-02-28T06:20:09.062Z,24.80
2023-02-28T06:22:36.402Z,24.70
2023-02-28T06:25:03.795Z,24.80
2023-02-28T06:27:31.388Z,24.70
2023-02-28T06:29:57.653Z,24.70
2023-02-28T06:32:24.038Z,24.70
2023-02-28T06:34:50.838Z,24.70
2023-02-28T06:37:17.735Z,24.70
2023-02-28T06:39:44.205Z,24.60
2023-02-28T06:42:10.369Z,24.60
2023-02-28T06:44:36.656Z,24.60
2023-02-28T06:47:04.704Z,24.60
2023-02-28T06:49:32.740Z,24.60
2023-02-28T06:51:58.856Z,24.60
2023-02-28T06:54:26.164Z,24.60
2023-02-28T06:56:53.936Z,24.60
2023-02-28T06:59:20.426Z,24.60
2023-02-28T07:01:47.564Z,24.60
2023-02-28T07:04:13.757Z,24.60
2023-02-28T07:06:39.929Z,24.60
2023-02-28T07:09:06.061Z,24.60
2023-02-28T07:11:32.670Z,24.50
2023-02-28T07:13:58.919Z,24.50
2023-02-28T07:16:25.821Z,24.50
2023-02-28T07:18:55.605Z,24.50
2023-02-28T07:21:22.148Z,24.50
2023-02-28T07:23:48.244Z,24.50
2023-02-28T07:26:17.354Z,24.50
2023-02-28T07:28:45.501Z,24.50
2023-02-28T07:31:12.241Z,24.50
2023-02-28T07:33:38.971Z,24.50
2023-02-28T07:36:07.989Z,24.40
2023-02-28T07:38:35.920Z,24.50
2023-02-28T07:41:04.653Z,24.50
2023-02-28T07:43:32.027Z,24.50
2023-02-28T07:46:06.349Z,24.50
2023-02-28T07:48:32.976Z,24.50
2023-02-28T07:50:59.869Z,24.40
2023-02-28T07:53:27.356Z,24.40
2023-02-28T07:56:01.162Z,24.50
2023-02-28T07:58:28.487Z,24.50
2023-02-28T08:00:54.846Z,24.40
2023-02-28T08:03:22.768Z,24.50
2023-02-28T08:05:49.589Z,24.40
2023-02-28T08:08:17.066Z,24.40
2023-02-28T08:10:45.555Z,24.40
2023-02-28T08:13:11.668Z,24.40
2023-02-28T08:15:37.787Z,24.40
2023-02-28T08:18:04.438Z,24.40
2023-02-28T08:20:31.060Z,24.40
2023-02-28T08:22:57.202Z,24.40
2023-02-28T08:25:23.742Z,24.40
2023-02-28T08:27:52.554Z,24.40
2023-02-28T08:30:18.994Z,24.40
2023-02-28T08:32:45.150Z,24.40
2023-02-28T08:35:11.321Z,24.40
2023-02-28T08:37:37.488Z,24.40
2023-02-28T08:40:04.374Z,24.40
2023-02-28T08:42:32.642Z,24.30
2023-02-28T08:44:58.716Z,24.30
2023-02-28T08:47:24.804Z,24.40
2023-02-28T08:49:50.872Z,24.30
2023-02-28T08:52:17.021Z,24.40
2023-02-28T08:54:43.077Z,24.40
2023-02-28T08:57:09.198Z,24.40
2023-02-28T08:59:35.261Z,24.30
2023-02-28T09:02:01.398Z,24.30
2023-02-28T09:04:27.532Z,24.30
2023-02-28T09:06:54.050Z,24.30
2023-02-28T09:09:20.222Z,24.30
2023-02-28T09:11:46.282Z,24.30
2023-02-28T09:14:12.606Z,24.30
2023-02-28T09:16:38.891Z,24.30
2023-02-28T09:19:05.002Z,24.30
2023-02-28T09:21:31.577Z,24.30
2023-02-28T09:23:57.757Z,24.30
2023-02-28T09:26:26.469Z,24.30
2023-02-28T09:28:53.531Z,24.30
2023-02-28T09:31:24.083Z,24.30
2023-02-28T09:33:51.949Z,24.30
2023-02-28T09:36:18.879Z,24.30
2023-02-28T09:38:48.168Z,24.30
2023-02-28T09:41:21.731Z,24.30
2023-02-28T09:43:53.951Z,24.30
2023-02-28T09:46:28.430Z,24.30
2023-02-28T09:48:56.310Z,24.30
2023-02-28T09:51:49.029Z,24.30
2023-02-28T09:54:24.242Z,24.30
2023-02-28T09:57:05.770Z,24.30
2023-02-28T09:59:50.608Z,24.30
2023-02-28T10:02:44.053Z,24.30
2023-02-28T10:05:13.500Z,24.30
2023-02-28T10:08:02.018Z,24.30
2023-02-28T10:10:53.670Z,24.30
2023-02-28T10:13:30.038Z,24.20
2023-02-28T10:16:01.793Z,24.30
2023-02-28T10:18:51.041Z,24.30
2023-02-28T10:21:24.823Z,24.30
2023-02-28T10:23:59.560Z,24.30
2023-02-28T10:26:29.518Z,24.20
2023-02-28T10:28:55.801Z,24.20
2023-02-28T10:31:22.293Z,24.20
2023-02-28T10:33:49.957Z,24.20
2023-02-28T10:36:19.279Z,24.30
2023-02-28T10:38:46.859Z,24.20
2023-02-28T10:41:34.764Z,24.20
2023-02-28T10:44:33.104Z,24.20
2023-02-28T10:47:00.121Z,24.30
2023-02-28T10:49:30.863Z,24.20
2023-02-28T10:51:59.877Z,24.20
2023-02-28T10:54:35.624Z,24.20
2023-02-28T10:57:15.007Z,24.20
2023-02-28T10:59:41.110Z,24.20
2023-02-28T11:04:58.304Z,24.30
2023-02-28T11:07:27.855Z,24.20
2023-02-28T11:09:58.478Z,24.20
2023-02-28T11:12:30.455Z,24.20
2023-02-28T11:15:06.826Z,24.30
2023-02-28T11:17:33.279Z,24.20
2023-02-28T11:20:07.557Z,24.20
2023-02-28T11:22:40.380Z,24.20
2023-02-28T11:25:25.081Z,24.20
2023-02-28T11:27:54.321Z,24.20
2023-02-28T11:30:25.792Z,24.20
2023-02-28T11:32:51.957Z,24.20
2023-02-28T11:35:25.233Z,24.20
2023-02-28T11:37:51.874Z,24.20
2023-02-28T11:40:47.141Z,24.20
2023-02-28T11:43:24.960Z,24.20
2023-02-28T11:46:08.765Z,24.20
2023-02-28T11:48:58.644Z,24.20
2023-02-28T11:51:32.507Z,24.20
2023-02-28T11:54:04.453Z,24.20
2023-02-28T11:57:09.981Z,24.20
2023-02-28T11:59:39.069Z,24.20
2023-02-28T12:02:20.290Z,24.20
2023-02-28T12:05:11.380Z,24.20
2023-02-28T12:08:01.574Z,24.20
2023-02-28T12:10:40.361Z,24.20
2023-02-28T12:13:19.452Z,24.20
2023-02-28T12:16:00.792Z,24.20
2023-02-28T12:18:51.156Z,24.20
2023-02-28T12:21:52.124Z,24.20
2023-02-28T12:24:33.551Z,24.20
2023-02-28T12:27:05.932Z,24.20
2023-02-28T12:29:59.468Z,24.20
2023-02-28T12:32:35.661Z,24.20
2023-02-28T12:35:10.660Z,24.20
2023-02-28T12:38:03.599Z,24.20
2023-02-28T12:40:43.380Z,24.10
2023-02-28T12:43:13.544Z,24.20
2023-02-28T12:46:02.933Z,24.20
2023-02-28T12:48:42.811Z,24.20
2023-02-28T12:51:10.009Z,24.20
2023-02-28T12:53:42.925Z,24.20
2023-02-28T12:56:15.502Z,24.20
2023-02-28T12:58:43.661Z,24.20
2023-02-28T13:01:30.409Z,24.20
2023-02-28T13:04:34.658Z,24.20
2023-02-28T13:07:08.229Z,24.20
2023-02-28T13:09:34.719Z,24.10
2023-02-28T13:12:00.976Z,24.20
2023-02-28T13:14:32.786Z,24.20
2023-02-28T13:17:07.897Z,24.30
2023-02-28T13:19:40.751Z,24.30
2023-02-28T13:22:25.400Z,24.30
2023-02-28T13:24:56.136Z,24.30
2023-02-28T13:27:32.364Z,24.30
2023-02-28T13:29:58.701Z,24.40
2023-02-28T13:32:33.364Z,24.40
2023-02-28T13:34:59.403Z,24.40
2023-02-28T13:37:25.452Z,24.40
2023-02-28T13:40:00.158Z,24.40
2023-02-28T13:42:32.023Z,24.40
2023-02-28T13:45:04.306Z,24.40
2023-02-28T13:47:43.705Z,24.40
2023-02-28T13:50:18.769Z,24.40
2023-02-28T13:53:16.345Z,24.40
2023-02-28T13:56:00.485Z,24.40
2023-02-28T13:59:03.628Z,24.50
2023-02-28T14:01:35.499Z,24.50
2023-02-28T14:04:30.136Z,24.50
2023-02-28T14:06:58.624Z,24.50
2023-02-28T14:09:31.860Z,24.50
2023-02-28T14:12:18.039Z,24.50
2023-02-28T14:14:44.092Z,24.50
2023-02-28T14:17:17.559Z,24.50
2023-02-28T14:19:49.857Z,24.60
2023-02-28T14:22:44.056Z,24.60
2023-02-28T14:25:52.272Z,24.50
2023-02-28T14:28:51.208Z,24.60
2023-02-28T14:31:36.640Z,24.60
2023-02-28T14:34:50.530Z,24.60
2023-02-28T14:37:23.581Z,24.60
2023-02-28T14:39:50.044Z,24.60
2023-02-28T14:42:34.234Z,24.60
2023-02-28T14:45:00.936Z,24.60
2023-02-28T14:47:32.015Z,24.60
2023-02-28T14:49:59.715Z,24.60
2023-02-28T14:52:30.000Z,24.60
2023-02-28T14:55:02.293Z,24.60
2023-02-28T14:57:39.792Z,24.50
2023-02-28T15:00:17.399Z,24.50
2023-02-28T15:02:43.683Z,24.40
2023-02-28T15:05:18.489Z,24.40
2023-02-28T15:07:45.745Z,24.40
2023-02-28T15:10:12.268Z,24.40
2023-02-28T15:12:40.405Z,24.40
2023-02-28T15:15:08.138Z,24.40
2023-02-28T15:17:35.638Z,24.40
2023-02-28T15:20:02.259Z,24.30
2023-02-28T15:22:36.322Z,24.30
2023-02-28T15:25:04.604Z,24.40
2023-02-28T15:27:33.660Z,24.30
2023-02-28T15:30:07.026Z,24.30
2023-02-28T15:32:36.596Z,24.30
2023-02-28T15:35:28.560Z,24.30
2023-02-28T15:37:56.087Z,24.30
2023-02-28T15:40:32.233Z,24.30
2023-02-28T15:43:26.184Z,24.30
2023-02-28T15:46:13.967Z,24.30
2023-02-28T15:48:52.782Z,24.20
2023-02-28T15:51:24.812Z,24.20
2023-02-28T15:54:02.106Z,24.30
2023-02-28T15:56:31.834Z,24.20
2023-02-28T15:59:04.876Z,24.20
2023-02-28T16:01:38.823Z,24.20
2023-02-28T16:04:12.788Z,24.20
2023-02-28T16:06:44.786Z,24.20
2023-02-28T16:09:13.989Z,24.20
2023-02-28T16:11:43.995Z,24.20
2023-02-28T16:14:15.894Z,24.20
2023-02-28T16:16:52.055Z,24.20
2023-02-28T16:19:19.176Z,24.20
2023-02-28T16:21:45.766Z,24.20
2023-02-28T16:24:12.337Z,24.20
2023-02-28T16:26:45.884Z,24.20
2023-02-28T16:29:20.524Z,24.20
2023-02-28T16:31:46.688Z,24.10
2023-02-28T16:34:13.356Z,24.10
2023-02-28T16:36:40.438Z,24.10
2023-02-28T16:39:06.531Z,24.20
2023-02-28T16:41:34.789Z,24.20
2023-02-28T16:44:01.380Z,24.20
2023-02-28T16:46:33.478Z,24.20
2023-02-28T16:48:59.585Z,24.10
2023-02-28T16:51:25.734Z,24.10
2023-02-28T16:53:51.909Z,24.10
2023-02-28T16:56:21.332Z,24.10
2023-02-28T16:58:49.311Z,24.10
2023-02-28T17:01:16.386Z,24.20
2023-02-28T17:03:42.755Z,24.10
2023-02-28T17:06:22.513Z,24.10
2023-02-28T17:08:49.908Z,24.10
2023-02-28T17:11:16.607Z,24.10
2023-02-28T17:13:42.750Z,24.10
2023-02-28T17:16:18.823Z,24.10
2023-02-28T17:18:47.304Z,24.10
2023-02-28T17:21:15.493Z,24.10
2023-02-28T17:23:41.762Z,24.10
2023-02-28T17:26:20.292Z,24.10
2023-02-28T17:28:49.414Z,24.10
2023-02-28T17:31:15.836Z,24.10
2023-02-28T17:33:41.962Z,24.10
2023-02-28T17:36:15.274Z,24.00
2023-02-28T17:38:41.865Z,24.10
2023-02-28T17:41:10.904Z,24.10
2023-02-28T17:43:37.141Z,24.10
2023-02-28T17:46:05.400Z,24.10
2023-02-28T17:48:33.446Z,24.10
2023-02-28T17:50:59.621Z,24.10
2023-02-28T17:53:27.416Z,24.10
2023-02-28T17:55:53.500Z,24.10
2023-02-28T17:58:19.865Z,24.10
2023-02-28T18:00:47.394Z,24.10
2023-02-28T18:03:13.693Z,24.10
2023-02-28T18:05:40.824Z,24.10
2023-02-28T18:08:08.990Z,24.20
2023-02-28T18:10:35.101Z,24.20
2023-02-28T18:13:01.211Z,24.20
2023-02-28T18:15:27.324Z,24.20
2023-02-28T18:17:53.409Z,24.30
2023-02-28T18:20:19.833Z,24.30
2023-02-28T18:22:46.901Z,24.30
2023-02-28T18:25:16.208Z,24.30
2023-02-28T18:27:57.524Z,24.30
2023-02-28T18:30:26.509Z,24.30
2023-02-28T18:32:52.769Z,24.30
2023-02-28T18:35:33.977Z,24.40
2023-02-28T18:38:18.660Z,24.40
2023-02-28T18:40:53.393Z,24.40
2023-02-28T18:43:19.533Z,24.50
2023-02-28T18:45:45.853Z,24.40
2023-02-28T18:48:12.927Z,24.40
2023-02-28T18:50:39.047Z,24.40
2023-02-28T18:53:05.122Z,24.40
2023-02-28T18:55:32.074Z,24.50
2023-02-28T18:57:58.153Z,24.40
2023-02-28T19:00:25.147Z,24.50
2023-02-28T19:02:51.805Z,24.50
2023-02-28T19:05:19.197Z,24.50
2023-02-28T19:07:46.072Z,24.50
2023-02-28T19:10:13.030Z,24.50
2023-02-28T19:12:42.172Z,24.50
2023-02-28T19:15:09.730Z,24.50
2023-02-28T19:17:36.857Z,24.50
2023-02-28T19:20:04.591Z,24.50
2023-02-28T19:22:31.233Z,24.60
2023-02-28T19:24:57.365Z,24.60
2023-02-28T19:27:23.670Z,24.60
2023-02-28T19:29:52.176Z,24.60
2023-02-28T19:32:20.201Z,24.60
2023-02-28T19:34:46.958Z,24.60
2023-02-28T19:37:13.596Z,24.60
2023-02-28T19:39:42.671Z,24.60
2023-02-28T19:42:13.757Z,24.60
2023-02-28T19:44:40.574Z,24.60
2023-02-28T19:47:07.004Z,24.60
2023-02-28T19:49:33.257Z,24.60
2023-02-28T19:51:59.667Z,24.60
2023-02-28T19:54:26.833Z,24.60
2023-02-28T19:56:57.769Z,24.60
2023-02-28T19:59:35.753Z,24.60
2023-02-28T20:02:05.772Z,24.60
2023-02-28T20:04:31.918Z,24.60
2023-02-28T20:06:58.085Z,24.60
2023-02-28T20:09:24.175Z,24.60
2023-02-28T20:11:50.277Z,24.60
2023-02-28T20:14:17.159Z,24.60
2023-02-28T20:16:44.936Z,24.60
2023-02-28T20:19:11.170Z,24.60
2023-02-28T20:21:37.253Z,24.60
2023-02-28T20:24:03.510Z,24.60
2023-02-28T20:26:29.782Z,24.60
2023-02-28T20:28:56.067Z,24.70
2023-02-28T20:31:24.815Z,24.60
2023-02-28T20:33:52.132Z,24.70
2023-02-28T20:36:22.777Z,24.60
2023-02-28T20:38:50.976Z,24.60
2023-02-28T20:41:17.273Z,24.70
2023-02-28T20:43:43.740Z,24.70
2023-02-28T20:46:10.386Z,24.70
2023-02-28T20:48:37.188Z,24.70
2023-02-28T20:51:04.485Z,24.70
2023-02-28T20:53:32.157Z,24.70
2023-02-28T20:56:00.707Z,24.70
2023-02-28T20:58:29.535Z,24.70
2023-02-28T21:01:16.840Z,24.70
2023-02-28T21:03:47.571Z,24.70
2023-02-28T21:06:15.000Z,24.70
2023-02-28T21:08:41.489Z,24.70
2023-02-28T21:11:14.140Z,24.70
2023-02-28T21:13:47.745Z,24.70
2023-02-28T21:16:16.750Z,24.70
2023-02-28T21:18:43.158Z,24.70
2023-02-28T21:21:13.535Z,24.70
2023-02-28T21:23:41.034Z,24.70
2023-02-28T21:26:09.296Z,24.70
2023-02-28T21:28:36.357Z,24.70
2023-02-28T21:31:05.338Z,24.70
2023-02-28T21:33:32.128Z,24.70
2023-02-28T21:36:07.038Z,24.70
2023-02-28T21:38:34.013Z,24.70
2023-02-28T21:41:23.613Z,24.70
2023-02-28T21:43:50.333Z,24.70
2023-02-28T21:46:19.068Z,24.70
2023-02-28T21:48:49.213Z,24.70
2023-02-28T21:51:27.530Z,24.70
2023-02-28T21:53:53.754Z,24.70
2023-02-28T21:56:23.719Z,24.70
2023-02-28T21:58:50.723Z,24.70
2023-02-28T22:01:21.511Z,24.70
2023-02-28T22:03:48.759Z,24.70
2023-02-28T22:06:21.218Z,24.70
2023-02-28T22:08:51.293Z,24.70
2023-02-28T22:11:17.870Z,24.70
2023-02-28T22:13:44.072Z,24.70
2023-02-28T22:16:17.574Z,24.80
2023-02-28T22:18:44.225Z,24.70
2023-02-28T22:21:11.499Z,24.70
2023-02-28T22:23:38.521Z,24.70
2023-02-28T22:26:07.170Z,24.80
2023-02-28T22:28:33.712Z,24.70
2023-02-28T22:31:00.681Z,24.70
2023-02-28T22:33:27.613Z,24.70
2023-02-28T22:35:54.139Z,24.70
2023-02-28T22:38:20.301Z,24.70
2023-02-28T22:40:46.803Z,24.80
2023-02-28T22:43:12.942Z,24.70
2023-02-28T22:45:40.420Z,24.80
2023-02-28T22:48:07.669Z,24.70
2023-02-28T22:50:34.694Z,24.70
2023-02-28T22:53:01.207Z,24.70
2023-02-28T22:55:27.492Z,24.70
2023-02-28T22:57:53.604Z,24.80
2023-02-28T23:00:20.008Z,24.80
2023-02-28T23:02:47.161Z,24.80
2023-02-28T23:05:13.936Z,24.80
2023-02-28T23:07:41.239Z,24.80
2023-02-28T23:10:13.729Z,24.80
2023-02-28T23:12:49.834Z,24.80
2023-02-28T23:15:17.516Z,24.80
2023-02-28T23:17:44.311Z,24.80
2023-02-28T23:20:19.002Z,24.80
2023-02-28T23:22:49.706Z,24.80
2023-02-28T23:25:21.145Z,24.80
2023-02-28T23:27:47.732Z,24.80
2023-02-28T23:30:14.667Z,24.80
2023-02-28T23:32:41.174Z,24.80
2023-02-28T23:35:09.229Z,24.80
2023-02-28T23:37:37.192Z,24.80
2023-02-28T23:40:04.863Z,24.80
2023-02-28T23:42:31.200Z,24.80
2023-02-28T23:44:57.299Z,24.80
2023-02-28T23:47:24.236Z,24.80
2023-02-28T23:49:50.378Z,24.80
2023-02-28T23:52:16.436Z,24.80
2023-02-28T23:54:42.561Z,24.80
2023-02-28T23:57:08.696Z,24.80
2023-02-28T23:59:35.076Z,24.80
